Time;durP1;ratioP1;P1;durP2;ratioP2;P2;SDS_P1;SDS_P2;PMS_P1;PMS_P2;Temp;Humidity;BMP_temperature;BMP_pressure;BME280_temperature;BME280_humidity;BME280_pressure;Samples;Min_cycle;Max_cycle;Signal;HPM_P1;HPM_P2
2020/12/31 00:00:02;;;;;;;;;;;;;;;22.12;32.98;100032.63;3094113;28;113876;-59
2020/12/31 00:01:33;;;;;;;;;;;;;;;22.10;32.80;100034.94;3093422;28;114284;-59
2020/12/31 00:03:05;;;;;;;;;;;;;;;22.07;32.77;100047.72;3099654;28;114315;-59
2020/12/31 00:04:37;;;;;;;;;;;;;;;22.05;32.91;100040.75;3084833;28;114675;-59
2020/12/31 00:06:08;;;;;;;;;;;;;;;22.03;32.73;100034.66;3089494;28;114323;-59
2020/12/31 00:07:39;;;;;;;;;;;;;;;22.01;32.96;100039.81;3096518;28;115226;-60
2020/12/31 00:09:11;;;;;;;;;;;;;;;21.98;33.02;100037.69;3095494;28;114109;-60
2020/12/31 00:10:43;;;;;;;;;;;;;;;21.96;33.11;100037.19;3092511;28;114353;-60
2020/12/31 00:12:14;;;;;;;;;;;;;;;21.96;32.88;100040.00;3096255;28;114786;-60
2020/12/31 00:13:45;;;;;;;;;;;;;;;21.95;33.02;100041.16;3098114;28;114164;-59
2020/12/31 00:15:18;;;;;;;;;;;;;;;21.94;32.90;100043.13;3095835;28;114319;-59
2020/12/31 00:16:49;;;;;;;;;;;;;;;21.96;33.07;100042.81;3099114;28;114663;-59
2020/12/31 00:18:21;;;;;;;;;;;;;;;21.97;33.21;100041.66;3095818;28;114089;-59
2020/12/31 00:19:53;;;;;;;;;;;;;;;21.98;33.18;100034.88;3094202;28;115638;-59
2020/12/31 00:21:25;;;;;;;;;;;;;;;21.98;32.90;100032.06;3094059;28;114375;-58
2020/12/31 00:22:57;;;;;;;;;;;;;;;22.00;33.14;100044.59;3091526;28;114221;-59
2020/12/31 00:24:28;;;;;;;;;;;;;;;22.01;33.05;100045.44;3097326;28;115270;-59
2020/12/31 00:26:00;;;;;;;;;;;;;;;22.00;32.76;100053.03;3095535;28;114776;-59
2020/12/31 00:27:33;;;;;;;;;;;;;;;22.02;32.78;100047.06;3096374;28;116171;-58
2020/12/31 00:29:04;;;;;;;;;;;;;;;22.02;32.78;100044.25;3096363;28;115746;-58
2020/12/31 00:30:35;;;;;;;;;;;;;;;22.00;32.92;100036.16;3096608;28;115541;-59
2020/12/31 00:32:07;;;;;;;;;;;;;;;21.99;32.63;100042.94;3097666;28;116329;-58
2020/12/31 00:33:39;;;;;;;;;;;;;;;21.99;32.67;100045.75;3086008;28;115826;-59
2020/12/31 00:35:11;;;;;;;;;;;;;;;21.98;32.64;100046.94;3095171;28;114910;-59
2020/12/31 00:36:42;;;;;;;;;;;;;;;21.99;32.53;100042.13;3090143;28;115453;-59
2020/12/31 00:38:14;;;;;;;;;;;;;;;21.97;32.75;100044.47;3092466;28;119359;-59
2020/12/31 00:39:45;;;;;;;;;;;;;;;21.95;32.75;100044.78;3098173;28;115160;-59
2020/12/31 00:41:16;;;;;;;;;;;;;;;21.94;32.67;100047.97;3100554;28;115334;-59
2020/12/31 00:42:48;;;;;;;;;;;;;;;21.92;32.46;100050.25;3088140;28;115873;-59
2020/12/31 00:44:19;;;;;;;;;;;;;;;21.91;32.48;100048.59;3107047;28;115196;-59
2020/12/31 00:45:51;;;;;;;;;;;;;;;21.89;32.49;100050.94;3092939;28;114736;-59
2020/12/31 00:47:22;;;;;;;;;;;;;;;21.88;32.50;100043.66;3086478;28;114273;-59
2020/12/31 00:48:54;;;;;;;;;;;;;;;21.86;32.11;100052.41;3096004;28;116529;-59
2020/12/31 00:50:25;;;;;;;;;;;;;;;21.84;32.52;100043.50;3097446;28;114646;-58
2020/12/31 00:51:57;;;;;;;;;;;;;;;21.82;32.39;100045.84;3107100;28;114464;-59
2020/12/31 00:53:28;;;;;;;;;;;;;;;21.80;32.21;100053.78;3098165;28;114800;-59
2020/12/31 00:54:59;;;;;;;;;;;;;;;21.80;32.25;100051.00;3095459;28;114204;-59
2020/12/31 00:56:31;;;;;;;;;;;;;;;21.81;32.29;100046.16;3096475;28;114154;-59
2020/12/31 00:58:15;;;;;;;;;;;;;;;21.81;32.66;100048.97;3085431;28;114259;-60
2020/12/31 00:59:52;;;;;;;;;;;;;;;21.82;32.53;100050.63;3094145;28;114099;-58
2020/12/31 01:01:23;;;;;;;;;;;;;;;21.82;32.71;100051.44;3096920;28;114138;-58
2020/12/31 01:02:54;;;;;;;;;;;;;;;21.82;32.66;100056.25;3097811;28;113815;-58
2020/12/31 01:04:26;;;;;;;;;;;;;;;21.82;32.34;100053.44;3096031;28;113848;-59
2020/12/31 01:05:57;;;;;;;;;;;;;;;21.81;32.25;100058.22;3095218;28;114420;-59
2020/12/31 01:07:29;;;;;;;;;;;;;;;21.79;32.66;100054.94;3099759;28;114513;-58
2020/12/31 01:09:00;;;;;;;;;;;;;;;21.77;32.17;100054.44;3095630;28;115874;-59
2020/12/31 01:10:32;;;;;;;;;;;;;;;21.75;32.47;100053.97;3093584;28;114933;-58
2020/12/31 01:12:04;;;;;;;;;;;;;;;21.73;32.35;100048.69;3094720;28;116908;-58
2020/12/31 01:13:35;;;;;;;;;;;;;;;21.71;32.25;100065.06;3095593;28;115154;-59
2020/12/31 01:15:07;;;;;;;;;;;;;;;21.70;32.25;100056.97;3095429;28;115271;-59
2020/12/31 01:16:38;;;;;;;;;;;;;;;21.69;32.36;100058.97;3095418;28;114363;-59
2020/12/31 01:18:10;;;;;;;;;;;;;;;21.67;31.92;100052.84;3097263;28;115214;-56
2020/12/31 01:19:41;;;;;;;;;;;;;;;21.66;32.23;100061.63;3089151;28;115469;-58
2020/12/31 01:21:13;;;;;;;;;;;;;;;21.64;32.29;100061.13;3091449;28;115557;-59
2020/12/31 01:22:46;;;;;;;;;;;;;;;21.60;32.03;100066.63;3093369;28;115525;-59
2020/12/31 01:24:18;;;;;;;;;;;;;;;21.58;32.01;100066.13;3093404;28;114279;-60
2020/12/31 01:25:50;;;;;;;;;;;;;;;21.56;31.88;100062.00;3093619;28;114449;-59
2020/12/31 01:27:21;;;;;;;;;;;;;;;21.55;31.79;100055.56;3095392;28;117057;-59
2020/12/31 01:28:52;;;;;;;;;;;;;;;21.52;32.22;100052.59;3100308;28;115244;-56
2020/12/31 01:30:24;;;;;;;;;;;;;;;21.50;32.08;100064.16;3091851;28;114601;-59
2020/12/31 01:31:55;;;;;;;;;;;;;;;21.48;32.01;100069.31;3095151;28;114608;-59
2020/12/31 01:33:28;;;;;;;;;;;;;;;21.45;31.83;100060.72;3094712;28;115963;-59
2020/12/31 01:35:00;;;;;;;;;;;;;;;21.43;31.87;100061.06;3094583;28;116355;-59
2020/12/31 01:36:32;;;;;;;;;;;;;;;21.40;32.14;100061.72;3095197;28;116085;-59
2020/12/31 01:38:03;;;;;;;;;;;;;;;21.37;31.86;100062.41;3094044;28;114313;-59
2020/12/31 01:39:35;;;;;;;;;;;;;;;21.35;31.72;100059.09;3090619;28;115301;-58
2020/12/31 01:41:06;;;;;;;;;;;;;;;21.32;31.82;100059.78;3096192;28;114885;-59
2020/12/31 01:42:39;;;;;;;;;;;;;;;21.28;31.84;100059.63;3090894;28;114826;-57
2020/12/31 01:44:11;;;;;;;;;;;;;;;21.27;31.91;100065.56;3089016;28;115754;-57
2020/12/31 01:45:43;;;;;;;;;;;;;;;21.24;31.69;100057.81;3096162;28;114836;-57
2020/12/31 01:47:14;;;;;;;;;;;;;;;21.22;31.71;100062.94;3097094;28;116298;-57
2020/12/31 01:48:45;;;;;;;;;;;;;;;21.19;31.86;100061.63;3093477;28;114156;-57
2020/12/31 01:50:17;;;;;;;;;;;;;;;21.17;31.83;100063.94;3095129;28;115987;-58
2020/12/31 01:51:50;;;;;;;;;;;;;;;21.13;32.08;100053.69;3100636;28;115943;-58
2020/12/31 01:53:22;;;;;;;;;;;;;;;21.10;31.69;100063.59;3089240;28;114292;-57
2020/12/31 01:54:53;;;;;;;;;;;;;;;21.09;31.66;100061.13;3094171;28;113788;-57
2020/12/31 01:56:31;;;;;;;;;;;;;;;21.06;31.78;100068.25;3093507;28;114446;-57
2020/12/31 01:58:04;;;;;;;;;;;;;;;21.03;31.84;100063.28;3096163;28;114221;-57
2020/12/31 01:59:36;;;;;;;;;;;;;;;21.02;32.07;100067.25;3095951;28;114404;-57
2020/12/31 02:01:07;;;;;;;;;;;;;;;20.99;31.89;100067.91;3096792;28;113998;-57
2020/12/31 02:02:39;;;;;;;;;;;;;;;20.98;31.97;100068.25;3094861;28;114642;-57
2020/12/31 02:04:11;;;;;;;;;;;;;;;20.97;31.86;100075.03;3090315;28;114966;-57
2020/12/31 02:05:44;;;;;;;;;;;;;;;20.91;31.98;100065.94;3090683;28;114001;-59
2020/12/31 02:07:15;;;;;;;;;;;;;;;20.84;31.70;100071.25;3094556;28;115543;-57
2020/12/31 02:08:47;;;;;;;;;;;;;;;20.86;32.00;100078.16;3088880;28;114616;-58
2020/12/31 02:10:19;;;;;;;;;;;;;;;20.82;31.68;100077.19;3089000;28;114367;-59
2020/12/31 02:11:50;;;;;;;;;;;;;;;20.86;32.38;100075.38;3085205;28;114317;-55
2020/12/31 02:13:22;;;;;;;;;;;;;;;20.89;32.34;100084.28;3100408;28;114053;-57
2020/12/31 02:14:55;;;;;;;;;;;;;;;20.89;32.25;100079.50;3093326;28;115082;-57
2020/12/31 02:16:28;;;;;;;;;;;;;;;20.89;32.11;100079.50;3096756;28;115155;-56
2020/12/31 02:17:59;;;;;;;;;;;;;;;20.89;31.93;100073.06;3091528;28;115799;-57
2020/12/31 02:19:30;;;;;;;;;;;;;;;20.88;32.19;100069.44;3094445;28;115356;-57
2020/12/31 02:21:02;;;;;;;;;;;;;;;20.88;32.19;100074.22;3096525;28;114364;-57
2020/12/31 02:22:33;;;;;;;;;;;;;;;20.86;32.39;100078.16;3095877;28;114539;-56
2020/12/31 02:24:08;;;;;;;;;;;;;;;20.85;32.20;100078.50;3089703;28;115220;-56
2020/12/31 02:25:39;;;;;;;;;;;;;;;20.83;32.60;100081.66;3092548;28;115502;-56
2020/12/31 02:27:10;;;;;;;;;;;;;;;20.81;32.52;100083.94;3091489;28;114146;-56
2020/12/31 02:28:42;;;;;;;;;;;;;;;20.81;32.41;100083.13;3094247;28;114643;-56
2020/12/31 02:30:13;;;;;;;;;;;;;;;20.78;32.79;100081.81;3102935;27;114640;-56
2020/12/31 02:31:45;;;;;;;;;;;;;;;20.76;32.76;100078.50;3094139;28;118087;-56
2020/12/31 02:33:16;;;;;;;;;;;;;;;20.76;32.78;100081.31;3093960;28;114303;-57
2020/12/31 02:34:48;;;;;;;;;;;;;;;20.75;32.87;100090.09;3100069;28;115153;-57
2020/12/31 02:36:22;;;;;;;;;;;;;;;20.70;32.97;100085.47;3093394;28;114823;-57
2020/12/31 02:37:54;;;;;;;;;;;;;;;20.70;33.09;100088.28;3092489;28;118613;-56
2020/12/31 02:39:26;;;;;;;;;;;;;;;20.68;33.17;100089.75;3077352;28;116475;-57
2020/12/31 02:40:57;;;;;;;;;;;;;;;20.65;33.30;100080.00;3088881;28;118010;-56
2020/12/31 02:42:29;;;;;;;;;;;;;;;20.66;33.21;100080.84;3091668;28;115668;-56
2020/12/31 02:44:01;;;;;;;;;;;;;;;20.62;33.08;100083.50;3098973;28;118091;-57
2020/12/31 02:45:32;;;;;;;;;;;;;;;20.59;33.05;100086.94;3090682;28;118773;-56
2020/12/31 02:47:04;;;;;;;;;;;;;;;20.56;33.17;100073.56;3095738;28;114255;-56
2020/12/31 02:48:35;;;;;;;;;;;;;;;20.56;33.19;100083.97;3090271;28;117441;-57
2020/12/31 02:50:06;;;;;;;;;;;;;;;20.53;33.24;100074.25;3086674;28;114229;-56
2020/12/31 02:51:38;;;;;;;;;;;;;;;20.52;33.32;100080.19;3089851;28;115184;-57
2020/12/31 02:53:10;;;;;;;;;;;;;;;20.48;33.52;100080.00;3096167;28;115798;-57
2020/12/31 02:54:41;;;;;;;;;;;;;;;20.49;33.33;100075.22;3094745;28;118104;-57
2020/12/31 02:56:20;;;;;;;;;;;;;;;20.46;33.37;100081.47;3102383;28;115623;-57
2020/12/31 02:57:51;;;;;;;;;;;;;;;20.41;33.39;100079.66;3093899;28;116009;-57
2020/12/31 02:59:23;;;;;;;;;;;;;;;20.40;33.74;100078.84;3097641;28;114018;-57
2020/12/31 03:00:54;;;;;;;;;;;;;;;20.39;33.68;100074.41;3097282;28;114564;-58
2020/12/31 03:02:25;;;;;;;;;;;;;;;20.36;33.76;100074.22;3092724;28;113809;-58
2020/12/31 03:03:57;;;;;;;;;;;;;;;20.33;33.65;100072.06;3098188;28;114278;-57
2020/12/31 03:05:28;;;;;;;;;;;;;;;20.32;33.88;100084.44;3095287;28;114286;-58
2020/12/31 03:06:59;;;;;;;;;;;;;;;20.30;33.56;100081.97;3087682;28;113822;-58
2020/12/31 03:08:31;;;;;;;;;;;;;;;20.29;33.76;100087.88;3096925;28;114280;-57
2020/12/31 03:10:02;;;;;;;;;;;;;;;20.27;33.80;100084.56;3086643;28;114593;-57
2020/12/31 03:11:34;;;;;;;;;;;;;;;20.26;33.76;100080.13;3091329;28;115507;-58
2020/12/31 03:13:05;;;;;;;;;;;;;;;20.23;34.06;100075.97;3098365;28;114315;-58
2020/12/31 03:14:36;;;;;;;;;;;;;;;20.22;34.05;100070.69;3102692;27;114341;-57
2020/12/31 03:16:08;;;;;;;;;;;;;;;20.20;33.93;100075.81;3098147;28;114355;-58
2020/12/31 03:17:39;;;;;;;;;;;;;;;20.20;33.96;100081.44;3099347;28;114300;-58
2020/12/31 03:19:11;;;;;;;;;;;;;;;20.18;33.93;100078.94;3105134;28;113919;-58
2020/12/31 03:20:43;;;;;;;;;;;;;;;20.15;34.40;100084.38;3108092;27;114672;-57
2020/12/31 03:22:15;;;;;;;;;;;;;;;20.13;34.28;100084.69;3096729;28;113967;-58
2020/12/31 03:23:46;;;;;;;;;;;;;;;20.11;34.18;100086.19;3084693;28;115090;-58
2020/12/31 03:25:18;;;;;;;;;;;;;;;20.11;34.07;100081.41;3085835;28;115006;-57
2020/12/31 03:26:49;;;;;;;;;;;;;;;20.09;34.08;100080.06;3099810;28;114857;-57
2020/12/31 03:28:20;;;;;;;;;;;;;;;20.06;34.22;100083.53;3097830;28;115168;-58
2020/12/31 03:29:52;;;;;;;;;;;;;;;20.05;34.40;100091.13;3097994;28;115333;-58
2020/12/31 03:31:23;;;;;;;;;;;;;;;20.02;34.39;100091.78;3098240;28;114199;-57
2020/12/31 03:32:54;;;;;;;;;;;;;;;20.02;34.30;100088.16;3093706;28;114330;-58
2020/12/31 03:34:25;;;;;;;;;;;;;;;20.00;34.60;100091.28;3084880;28;114982;-58
2020/12/31 03:35:57;;;;;;;;;;;;;;;19.99;34.21;100093.25;3089385;28;114677;-58
2020/12/31 03:37:29;;;;;;;;;;;;;;;19.97;34.47;100081.53;3099422;28;115007;-58
2020/12/31 03:39:00;;;;;;;;;;;;;;;19.94;34.30;100084.97;3094182;28;114121;-58
2020/12/31 03:40:31;;;;;;;;;;;;;;;19.93;34.61;100079.72;3085552;28;114868;-57
2020/12/31 03:42:03;;;;;;;;;;;;;;;19.91;34.60;100082.00;3094239;28;114672;-57
2020/12/31 03:43:34;;;;;;;;;;;;;;;19.88;34.86;100082.66;3104411;28;116490;-57
2020/12/31 03:45:06;;;;;;;;;;;;;;;19.86;34.60;100082.97;3103747;27;114720;-57
2020/12/31 03:46:37;;;;;;;;;;;;;;;19.84;35.00;100085.31;3092224;28;114920;-58
2020/12/31 03:48:09;;;;;;;;;;;;;;;19.85;34.76;100088.94;3091340;28;114586;-57
2020/12/31 03:49:50;;;;;;;;;;;;;;;19.81;34.94;100083.13;3107624;28;115716;-57
2020/12/31 03:51:25;;;;;;;;;;;;;;;19.79;35.33;100085.44;3096859;28;114746;-57
2020/12/31 03:52:56;;;;;;;;;;;;;;;19.78;35.27;100082.97;3099209;28;118537;-57
2020/12/31 03:54:27;;;;;;;;;;;;;;;19.75;35.06;100084.44;3107874;27;115762;-57
2020/12/31 03:55:58;;;;;;;;;;;;;;;19.74;35.07;100076.34;3098203;27;114729;-57
2020/12/31 03:57:30;;;;;;;;;;;;;;;19.71;35.42;100080.66;3098266;28;115954;-57
2020/12/31 03:59:01;;;;;;;;;;;;;;;19.70;35.16;100087.38;3098443;28;115523;-58
2020/12/31 04:00:32;;;;;;;;;;;;;;;19.69;35.42;100087.69;3097579;28;116064;-57
2020/12/31 04:02:04;;;;;;;;;;;;;;;19.67;35.21;100090.81;3101391;28;114960;-58
2020/12/31 04:03:35;;;;;;;;;;;;;;;19.66;35.40;100082.75;3097529;28;113868;-58
2020/12/31 04:05:07;;;;;;;;;;;;;;;19.64;35.36;100088.66;3098457;28;114015;-58
2020/12/31 04:06:40;;;;;;;;;;;;;;;19.64;35.42;100082.25;3097531;28;117968;-58
2020/12/31 04:08:12;;;;;;;;;;;;;;;19.63;35.29;100074.97;3097008;28;114324;-58
2020/12/31 04:09:43;;;;;;;;;;;;;;;19.60;35.41;100079.25;3098491;28;114278;-58
2020/12/31 04:11:14;;;;;;;;;;;;;;;19.58;35.54;100087.16;3097932;28;114522;-58
2020/12/31 04:12:46;;;;;;;;;;;;;;;19.56;35.80;100083.88;3106659;28;114357;-58
2020/12/31 04:14:17;;;;;;;;;;;;;;;19.57;35.66;100076.28;3101711;27;114380;-58
2020/12/31 04:15:49;;;;;;;;;;;;;;;19.53;35.69;100084.53;3097893;28;113875;-58
2020/12/31 04:17:20;;;;;;;;;;;;;;;19.52;35.91;100086.50;3109682;28;114309;-58
2020/12/31 04:18:51;;;;;;;;;;;;;;;19.52;35.61;100082.88;3105611;28;114209;-57
2020/12/31 04:20:23;;;;;;;;;;;;;;;19.50;35.73;100085.97;3094101;28;114198;-57
2020/12/31 04:21:54;;;;;;;;;;;;;;;19.49;35.94;100084.31;3086806;28;114098;-57
2020/12/31 04:23:26;;;;;;;;;;;;;;;19.48;35.79;100095.88;3098613;28;113982;-57
2020/12/31 04:24:57;;;;;;;;;;;;;;;19.47;35.73;100097.00;3088726;28;114232;-57
2020/12/31 04:26:28;;;;;;;;;;;;;;;19.44;35.98;100094.88;3097926;28;117542;-57
2020/12/31 04:28:00;;;;;;;;;;;;;;;19.42;35.80;100099.91;3089826;28;114996;-57
2020/12/31 04:29:31;;;;;;;;;;;;;;;19.41;35.89;100096.28;3090901;28;115342;-57
2020/12/31 04:31:02;;;;;;;;;;;;;;;19.39;35.96;100093.00;3093008;28;114020;-57
2020/12/31 04:32:33;;;;;;;;;;;;;;;19.39;36.01;100095.78;3093474;28;116605;-57
2020/12/31 04:34:14;;;;;;;;;;;;;;;19.38;35.93;100098.91;3092453;28;115311;-57
2020/12/31 04:36:01;;;;;;;;;;;;;;;19.35;36.03;100097.56;3088652;28;114763;-57
2020/12/31 04:37:32;;;;;;;;;;;;;;;19.37;35.99;100100.03;3097278;28;114834;-57
2020/12/31 04:39:03;;;;;;;;;;;;;;;19.36;36.14;100109.59;3093140;28;117845;-57
2020/12/31 04:40:35;;;;;;;;;;;;;;;19.39;36.06;100101.41;3089636;28;115175;-57
2020/12/31 04:42:06;;;;;;;;;;;;;;;19.44;36.19;100095.66;3092519;28;114158;-57
2020/12/31 04:43:38;;;;;;;;;;;;;;;19.48;36.22;100093.06;3097319;28;114917;-57
2020/12/31 04:45:10;;;;;;;;;;;;;;;19.52;36.21;100089.28;3100226;28;114615;-57
2020/12/31 04:46:41;;;;;;;;;;;;;;;19.56;36.41;100080.22;3097365;28;114664;-57
2020/12/31 04:48:27;;;;;;;;;;;;;;;19.59;36.62;100079.56;3097121;28;114664;-57
2020/12/31 04:49:58;;;;;;;;;;;;;;;19.64;36.65;100083.06;3096567;28;115825;-57
2020/12/31 04:51:30;;;;;;;;;;;;;;;19.68;36.63;100081.25;3085901;28;115685;-57
2020/12/31 04:53:09;;;;;;;;;;;;;;;19.73;36.80;100083.09;3096170;28;115858;-57
2020/12/31 04:54:40;;;;;;;;;;;;;;;19.77;36.64;100076.53;3085052;28;114803;-57
2020/12/31 04:56:12;;;;;;;;;;;;;;;19.79;36.65;100074.22;3105843;28;115026;-59
2020/12/31 04:57:43;;;;;;;;;;;;;;;19.86;36.83;100077.38;3092768;27;114598;-57
2020/12/31 04:59:14;;;;;;;;;;;;;;;19.91;37.67;100079.19;3091753;28;115950;-58
2020/12/31 05:00:46;;;;;;;;;;;;;;;19.96;37.18;100071.47;3098130;28;116027;-58
2020/12/31 05:02:17;;;;;;;;;;;;;;;20.02;36.98;100082.53;3098053;28;114807;-58
2020/12/31 05:03:49;;;;;;;;;;;;;;;20.05;36.81;100088.31;3096394;28;114633;-58
2020/12/31 05:05:21;;;;;;;;;;;;;;;20.11;37.00;100086.19;3094436;28;114778;-58
2020/12/31 05:06:52;;;;;;;;;;;;;;;20.15;36.46;100088.00;3097096;28;116018;-58
2020/12/31 05:08:27;;;;;;;;;;;;;;;20.20;36.70;100087.88;3099181;28;115964;-58
2020/12/31 05:10:11;;;;;;;;;;;;;;;20.26;36.49;100091.34;3086270;28;113800;-58
2020/12/31 05:11:44;;;;;;;;;;;;;;;20.29;36.31;100085.91;3096660;28;114299;-58
2020/12/31 05:13:15;;;;;;;;;;;;;;;20.35;36.46;100101.44;3093457;28;114328;-58
2020/12/31 05:14:48;;;;;;;;;;;;;;;20.39;36.44;100098.81;3093317;28;114833;-58
2020/12/31 05:16:29;;;;;;;;;;;;;;;20.43;36.13;100108.22;3100210;28;114646;-58
2020/12/31 05:18:20;;;;;;;;;;;;;;;20.47;36.02;100105.59;3089682;28;114445;-58
2020/12/31 05:19:51;;;;;;;;;;;;;;;20.52;36.11;100097.00;3088433;28;114284;-58
2020/12/31 05:21:23;;;;;;;;;;;;;;;20.55;36.06;100099.97;3103850;28;114305;-59
2020/12/31 05:23:08;;;;;;;;;;;;;;;20.60;35.83;100097.00;3104082;28;113820;-59
2020/12/31 05:24:41;;;;;;;;;;;;;;;20.66;35.79;100101.31;3096194;28;114410;-58
2020/12/31 05:26:27;;;;;;;;;;;;;;;20.68;35.84;100098.16;3096900;28;113881;-58
2020/12/31 05:27:58;;;;;;;;;;;;;;;20.71;35.66;100101.16;3094315;28;116021;-58
2020/12/31 05:29:30;;;;;;;;;;;;;;;20.76;36.87;100100.97;3100941;28;113833;-58
2020/12/31 05:31:03;;;;;;;;;;;;;;;20.79;36.36;100107.91;3088464;28;114387;-58
2020/12/31 05:32:39;;;;;;;;;;;;;;;20.83;36.15;100104.13;3096086;28;114531;-58
2020/12/31 05:34:26;;;;;;;;;;;;;;;20.86;35.99;100109.06;3095843;28;114043;-57
2020/12/31 05:36:16;;;;;;;;;;;;;;;20.89;35.94;100101.16;3096268;28;114144;-57
2020/12/31 05:37:47;;;;;;;;;;;;;;;20.93;35.58;100105.75;3087633;28;114649;-57
2020/12/31 05:39:18;;;;;;;;;;;;;;;20.96;35.39;100113.50;3093279;28;115133;-58
2020/12/31 05:40:57;;;;;;;;;;;;;;;20.98;35.64;100114.03;3095480;28;114385;-57
2020/12/31 05:42:29;;;;;;;;;;;;;;;21.01;35.72;100113.34;3102339;28;116702;-57
2020/12/31 05:44:01;;;;;;;;;;;;;;;21.05;35.65;100119.94;3107040;27;115063;-57
2020/12/31 05:45:33;;;;;;;;;;;;;;;21.07;35.30;100120.47;3091881;27;114158;-57
2020/12/31 05:47:04;;;;;;;;;;;;;;;21.11;35.21;100118.63;3092447;28;114004;-57
2020/12/31 05:48:35;;;;;;;;;;;;;;;21.13;35.08;100126.72;3089967;28;115231;-58
2020/12/31 05:50:19;;;;;;;;;;;;;;;21.15;35.16;100119.66;3089349;28;114115;-58
2020/12/31 05:51:50;;;;;;;;;;;;;;;21.20;34.98;100127.06;3096061;28;114306;-58
2020/12/31 05:53:22;;;;;;;;;;;;;;;21.21;35.04;100123.13;3098464;28;114596;-57
2020/12/31 05:54:57;;;;;;;;;;;;;;;21.24;35.35;100130.88;3096786;28;116260;-57
2020/12/31 05:56:30;;;;;;;;;;;;;;;21.26;34.98;100126.56;3095566;28;115601;-58
2020/12/31 05:58:08;;;;;;;;;;;;;;;21.29;35.29;100136.31;3094706;28;114587;-58
2020/12/31 05:59:41;;;;;;;;;;;;;;;21.32;34.93;100135.63;3085891;28;114633;-58
2020/12/31 06:01:14;;;;;;;;;;;;;;;21.34;34.99;100130.53;3096661;28;114833;-58
2020/12/31 06:02:47;;;;;;;;;;;;;;;21.35;34.86;100134.97;3089985;28;116054;-57
2020/12/31 06:04:19;;;;;;;;;;;;;;;21.39;34.87;100140.75;3091657;28;115913;-57
2020/12/31 06:06:03;;;;;;;;;;;;;;;21.41;34.88;100136.44;3092570;28;119221;-58
2020/12/31 06:07:40;;;;;;;;;;;;;;;21.44;34.73;100132.94;3093284;28;114748;-58
2020/12/31 06:09:16;;;;;;;;;;;;;;;21.47;34.79;100142.72;3093232;28;115172;-58
2020/12/31 06:11:00;;;;;;;;;;;;;;;21.50;34.47;100147.66;3093749;28;115975;-58
2020/12/31 06:12:48;;;;;;;;;;;;;;;21.52;34.67;100143.38;3087755;28;115858;-58
2020/12/31 06:14:19;;;;;;;;;;;;;;;21.55;34.61;100136.25;3100057;28;115778;-58
2020/12/31 06:16:01;;;;;;;;;;;;;;;21.57;34.20;100140.38;3096523;28;115680;-58
2020/12/31 06:17:43;;;;;;;;;;;;;;;21.60;34.38;100141.69;3092943;28;113958;-58
2020/12/31 06:19:23;;;;;;;;;;;;;;;21.62;34.62;100145.00;3091339;28;114698;-58
2020/12/31 06:21:00;;;;;;;;;;;;;;;21.66;34.95;100137.53;3087527;28;114317;-58
2020/12/31 06:22:34;;;;;;;;;;;;;;;21.67;34.51;100140.00;3085786;28;114112;-58
2020/12/31 06:24:10;;;;;;;;;;;;;;;21.69;34.75;100136.88;3094760;28;114823;-58
2020/12/31 06:25:41;;;;;;;;;;;;;;;21.71;34.72;100140.97;3093439;28;115069;-58
2020/12/31 06:27:13;;;;;;;;;;;;;;;21.73;34.27;100147.09;3095487;28;114230;-58
2020/12/31 06:28:46;;;;;;;;;;;;;;;21.74;34.26;100143.13;3087037;28;113852;-58
2020/12/31 06:30:19;;;;;;;;;;;;;;;21.76;34.48;100148.41;3089859;28;114385;-58
2020/12/31 06:31:51;;;;;;;;;;;;;;;21.77;34.12;100141.63;3090551;28;113982;-57
2020/12/31 06:33:25;;;;;;;;;;;;;;;21.80;34.53;100142.94;3092911;28;113977;-57
2020/12/31 06:35:10;;;;;;;;;;;;;;;21.83;34.41;100145.09;3096544;28;113998;-58
2020/12/31 06:36:42;;;;;;;;;;;;;;;21.83;34.21;100145.91;3092297;28;114262;-58
2020/12/31 06:38:16;;;;;;;;;;;;;;;21.85;34.09;100146.38;3088174;28;114284;-58
2020/12/31 06:39:49;;;;;;;;;;;;;;;21.87;34.22;100146.88;3092956;28;113852;-58
2020/12/31 06:41:30;;;;;;;;;;;;;;;21.88;34.24;100151.34;3095906;28;114194;-58
2020/12/31 06:43:08;;;;;;;;;;;;;;;21.91;33.90;100144.22;3093256;28;114756;-58
2020/12/31 06:44:40;;;;;;;;;;;;;;;21.92;34.00;100154.31;3087903;28;114358;-58
2020/12/31 06:46:21;;;;;;;;;;;;;;;21.95;33.90;100156.47;3095360;28;115481;-58
2020/12/31 06:48:02;;;;;;;;;;;;;;;21.96;33.94;100153.34;3084654;28;114490;-57
2020/12/31 06:49:54;;;;;;;;;;;;;;;21.97;34.22;100155.00;3094987;28;115208;-58
2020/12/31 06:51:25;;;;;;;;;;;;;;;22.00;34.14;100159.09;3096540;28;115286;-57
2020/12/31 06:52:56;;;;;;;;;;;;;;;22.01;33.94;100149.50;3091889;28;114601;-58
2020/12/31 06:54:29;;;;;;;;;;;;;;;22.02;33.80;100153.97;3094454;28;114731;-56
2020/12/31 06:56:02;;;;;;;;;;;;;;;22.04;33.93;100137.56;3095053;28;115131;-57
2020/12/31 06:57:38;;;;;;;;;;;;;;;22.05;33.90;100156.09;3091554;28;114044;-56
2020/12/31 06:59:28;;;;;;;;;;;;;;;22.06;34.03;100144.53;3092311;28;114096;-58
2020/12/31 07:01:00;;;;;;;;;;;;;;;22.08;33.79;100149.78;3090359;28;117436;-57
2020/12/31 07:02:45;;;;;;;;;;;;;;;22.09;33.97;100149.47;3093312;28;115119;-58
2020/12/31 07:04:33;;;;;;;;;;;;;;;22.10;33.90;100162.38;3095589;28;115698;-58
2020/12/31 07:06:20;;;;;;;;;;;;;;;22.12;33.76;100157.22;3092051;28;114597;-59
2020/12/31 07:07:51;;;;;;;;;;;;;;;22.14;33.67;100156.88;3090428;28;114584;-58
2020/12/31 07:09:31;;;;;;;;;;;;;;;22.14;34.01;100154.06;3091943;28;115898;-58
2020/12/31 07:11:05;;;;;;;;;;;;;;;22.16;33.93;100154.56;3096821;28;114645;-58
2020/12/31 07:12:41;;;;;;;;;;;;;;;22.17;33.86;100159.00;3095153;28;114757;-58
2020/12/31 07:14:18;;;;;;;;;;;;;;;22.20;34.11;100163.97;3098935;28;114641;-58
2020/12/31 07:15:49;;;;;;;;;;;;;;;22.23;33.96;100165.28;3096419;28;114973;-59
2020/12/31 07:17:22;;;;;;;;;;;;;;;22.23;33.83;100165.28;3097503;28;115161;-59
2020/12/31 07:18:55;;;;;;;;;;;;;;;22.24;33.67;100173.41;3094684;28;114714;-59
2020/12/31 07:20:27;;;;;;;;;;;;;;;22.25;33.71;100171.41;3095871;28;115120;-58
2020/12/31 07:21:58;;;;;;;;;;;;;;;22.27;33.67;100171.88;3097986;28;116036;-58
2020/12/31 07:23:38;;;;;;;;;;;;;;;22.27;34.10;100167.06;3107469;28;115958;-58
2020/12/31 07:25:11;;;;;;;;;;;;;;;22.29;33.73;100173.22;3087455;28;114763;-58
2020/12/31 07:26:44;;;;;;;;;;;;;;;22.30;33.59;100180.50;3095969;28;114054;-58
2020/12/31 07:28:16;;;;;;;;;;;;;;;22.32;33.65;100180.13;3087460;28;114272;-58
2020/12/31 07:30:02;;;;;;;;;;;;;;;22.33;33.88;100181.78;3092868;28;114116;-58
2020/12/31 07:31:42;;;;;;;;;;;;;;;22.33;33.46;100185.44;3091741;28;113762;-58
2020/12/31 07:33:13;;;;;;;;;;;;;;;22.35;33.54;100193.53;3091349;28;114363;-58
2020/12/31 07:34:44;;;;;;;;;;;;;;;22.36;33.75;100190.38;3091688;28;113716;-58
2020/12/31 07:36:15;;;;;;;;;;;;;;;22.37;33.57;100191.19;3091082;28;114198;-59
2020/12/31 07:37:51;;;;;;;;;;;;;;;22.40;33.62;100190.50;3093277;28;114179;-57
2020/12/31 07:39:22;;;;;;;;;;;;;;;22.39;33.88;100188.88;3091394;28;114578;-57
2020/12/31 07:40:54;;;;;;;;;;;;;;;22.41;33.70;100181.75;3094279;28;114535;-57
2020/12/31 07:42:25;;;;;;;;;;;;;;;22.42;33.70;100188.19;3089666;28;113978;-58
2020/12/31 07:44:02;;;;;;;;;;;;;;;22.43;33.84;100190.69;3090166;28;113957;-58
2020/12/31 07:45:34;;;;;;;;;;;;;;;22.44;33.55;100197.94;3092194;28;114556;-58
2020/12/31 07:47:07;;;;;;;;;;;;;;;22.45;33.50;100201.59;3100757;28;114435;-58
2020/12/31 07:48:39;;;;;;;;;;;;;;;22.47;33.68;100196.44;3098120;28;115482;-58
2020/12/31 07:50:12;;;;;;;;;;;;;;;22.47;33.74;100199.25;3093895;27;114088;-58
2020/12/31 07:51:47;;;;;;;;;;;;;;;22.50;33.44;100207.03;3092444;28;115413;-58
2020/12/31 07:53:18;;;;;;;;;;;;;;;22.50;33.51;100198.56;3084264;28;115160;-58